Time;durP1;ratioP1;P1;durP2;ratioP2;P2;SDS_P1;SDS_P2;PMS_P1;PMS_P2;Temp;Humidity;BMP_temperature;BMP_pressure;BME280_temperature;BME280_humidity;BME280_pressure;Samples;Min_cycle;Max_cycle;Signal;HPM_P1;HPM_P2
2023/07/16 00:01:00;;;;;;;0.10;0.10;;;;;;;23.24;60.44;99575.25;4311544;33;20131;-96
2023/07/16 00:03:26;;;;;;;0.62;0.40;;;;;;;23.10;60.43;99575.59;4312180;33;20099;-96
2023/07/16 00:05:52;;;;;;;7.05;1.52;;;;;;;23.15;60.43;99568.06;4311817;33;20463;-96
2023/07/16 00:08:17;;;;;;;0.22;0.22;;;;;;;23.06;60.43;99572.38;4311386;33;20108;-96
2023/07/16 00:10:45;;;;;;;0.40;0.37;;;;;;;23.06;60.43;99575.03;4311390;33;20373;-96
2023/07/16 00:13:11;;;;;;;0.32;0.32;;;;;;;22.98;60.43;99566.91;4307712;33;128589;-96
2023/07/16 00:15:36;;;;;;;0.70;0.70;;;;;;;22.95;60.42;99565.34;4311011;33;20116;-95
2023/07/16 00:18:02;;;;;;;1.23;1.12;;;;;;;22.96;60.42;99563.53;4311661;33;20151;-95
2023/07/16 00:20:27;;;;;;;0.28;0.25;;;;;;;22.96;60.43;99564.38;4310790;33;20130;-95
2023/07/16 00:22:53;;;;;;;0.40;0.35;;;;;;;22.93;60.42;99561.13;4311159;33;20123;-96
2023/07/16 00:25:19;;;;;;;0.37;0.28;;;;;;;23.04;60.42;99568.19;4311041;33;20105;-96
2023/07/16 00:27:44;;;;;;;0.52;0.52;;;;;;;22.94;60.42;99568.13;4311319;33;20165;-95
2023/07/16 00:30:17;;;;;;;0.52;0.52;;;;;;;22.89;60.42;99568.50;4310882;33;20131;-96
2023/07/16 00:32:43;;;;;;;0.20;0.20;;;;;;;23.02;60.43;99564.81;4311563;33;20511;-95
2023/07/16 00:35:08;;;;;;;1.27;0.65;;;;;;;22.99;60.43;99565.09;4311098;33;20112;-96
2023/07/16 00:37:34;;;;;;;1.00;0.65;;;;;;;22.87;60.42;99565.16;4311286;33;20108;-95
2023/07/16 00:40:00;;;;;;;0.70;0.70;;;;;;;22.76;60.42;99559.91;4311244;33;20098;-96
2023/07/16 00:42:26;;;;;;;0.20;0.20;;;;;;;22.83;60.42;99558.44;4324098;33;20083;-96
2023/07/16 00:44:51;;;;;;;0.32;0.32;;;;;;;22.69;60.41;99564.03;4311383;33;20172;-96
2023/07/16 00:47:17;;;;;;;0.15;0.15;;;;;;;22.77;60.41;99560.75;4311215;33;20134;-96
2023/07/16 00:49:42;;;;;;;0.00;0.00;;;;;;;22.67;60.41;99563.31;4312923;33;20091;-96
2023/07/16 00:52:18;;;;;;;0.20;0.17;;;;;;;22.73;60.42;99554.88;4312817;33;20099;-96
2023/07/16 00:54:43;;;;;;;0.47;0.20;;;;;;;22.95;60.42;99552.09;4312412;33;20134;-95
2023/07/16 00:57:09;;;;;;;1.98;0.35;;;;;;;22.97;60.43;99549.28;4312182;33;20120;-95
2023/07/16 00:59:34;;;;;;;0.35;0.35;;;;;;;22.74;60.42;99545.94;4313082;33;20146;-96
2023/07/16 01:02:00;;;;;;;0.20;0.20;;;;;;;22.63;60.40;99546.84;4312502;33;20114;-96
2023/07/16 01:04:25;;;;;;;0.32;0.32;;;;;;;22.59;60.41;99547.22;4311519;33;20160;-96
2023/07/16 01:06:53;;;;;;;0.20;0.20;;;;;;;22.53;60.40;99548.59;4312040;33;20123;-96
2023/07/16 01:09:19;;;;;;;0.73;0.37;;;;;;;22.54;60.40;99544.13;4311229;33;20475;-96
2023/07/16 01:11:45;;;;;;;0.57;0.57;;;;;;;22.52;60.40;99544.25;4312486;33;20118;-96
2023/07/16 01:14:12;;;;;;;0.20;0.17;;;;;;;22.48;60.40;99539.34;4329084;33;20103;-96
2023/07/16 01:16:37;;;;;;;0.22;0.22;;;;;;;22.47;60.40;99533.19;4335140;33;20115;-96
2023/07/16 01:19:03;;;;;;;0.32;0.32;;;;;;;22.49;60.41;99538.38;4315069;33;20118;-95
2023/07/16 01:21:40;;;;;;;0.37;0.37;;;;;;;22.39;60.39;99540.09;4324571;33;20109;-96
2023/07/16 01:24:14;;;;;;;0.15;0.15;;;;;;;22.22;60.39;99544.16;4324172;33;20111;-96
2023/07/16 01:27:12;;;;;;;1.52;1.42;;;;;;;22.21;60.39;99542.47;4323906;33;20909;-96
2023/07/16 01:29:58;;;;;;;0.05;0.05;;;;;;;22.36;60.40;99541.22;4298358;33;20179;-96
2023/07/16 01:32:24;;;;;;;1.45;1.15;;;;;;;22.23;60.38;99551.16;4311863;33;20104;-96
2023/07/16 01:34:49;;;;;;;0.17;0.17;;;;;;;22.27;60.39;99547.31;4323576;33;20151;-96
2023/07/16 01:37:15;;;;;;;0.05;0.05;;;;;;;22.37;60.39;99538.44;4312835;33;20199;-96
2023/07/16 01:39:40;;;;;;;0.95;0.35;;;;;;;22.33;60.39;99534.34;4312063;33;20107;-96
2023/07/16 01:42:06;;;;;;;0.60;0.52;;;;;;;22.29;60.40;99532.09;4311441;33;20096;-96
2023/07/16 01:44:31;;;;;;;0.05;0.05;;;;;;;22.14;60.39;99542.16;4312656;33;20164;-95
2023/07/16 01:47:54;;;;;;;0.75;0.50;;;;;;;22.16;60.38;99544.69;4311851;33;20108;-95
2023/07/16 01:50:20;;;;;;;0.20;0.20;;;;;;;22.04;60.38;99539.44;4293953;33;20207;-96
2023/07/16 01:52:45;;;;;;;0.30;0.30;;;;;;;22.03;60.38;99539.53;4281568;33;20453;-96
2023/07/16 01:55:11;;;;;;;2.15;1.73;;;;;;;22.00;60.37;99542.41;4291632;33;20100;-96
2023/07/16 01:57:36;;;;;;;0.43;0.43;;;;;;;21.98;60.37;99542.53;4313298;33;20235;-96
2023/07/16 02:00:02;;;;;;;0.68;0.52;;;;;;;22.00;60.37;99540.62;4313415;33;20171;-95
2023/07/16 02:02:28;;;;;;;0.28;0.28;;;;;;;21.93;60.37;99530.66;4311993;33;20139;-96
2023/07/16 02:04:53;;;;;;;0.75;0.75;;;;;;;21.92;60.37;99532.47;4311082;33;20123;-96
2023/07/16 02:07:19;;;;;;;0.03;0.03;;;;;;;22.00;60.37;99530.03;4310821;33;20367;-96
2023/07/16 02:09:44;;;;;;;0.62;0.47;;;;;;;21.97;60.37;99535.56;4324540;33;20158;-96
2023/07/16 02:12:10;;;;;;;0.28;0.28;;;;;;;21.99;60.37;99530.97;4311291;33;20112;-96
2023/07/16 02:14:35;;;;;;;0.52;0.52;;;;;;;21.90;60.37;99530.91;4311273;33;20190;-96
2023/07/16 02:17:00;;;;;;;0.52;0.17;;;;;;;21.82;60.36;99530.72;4324063;33;20143;-96
2023/07/16 02:19:26;;;;;;;0.20;0.20;;;;;;;21.67;60.35;99528.31;4311382;33;20378;-96
2023/07/16 02:21:51;;;;;;;0.30;0.30;;;;;;;21.70;60.35;99525.44;4323760;33;20358;-95
2023/07/16 02:24:17;;;;;;;0.00;0.00;;;;;;;21.73;60.36;99526.97;4311685;33;20426;-96
2023/07/16 02:26:42;;;;;;;0.73;0.40;;;;;;;21.63;60.35;99516.31;4311044;33;20152;-96
2023/07/16 02:29:08;;;;;;;1.55;1.35;;;;;;;21.65;60.36;99517.03;4323088;33;20099;-95
2023/07/16 02:31:34;;;;;;;25.65;1.27;;;;;;;21.70;60.35;99520.13;4310668;33;20106;-96
2023/07/16 02:34:00;;;;;;;0.30;0.30;;;;;;;21.67;60.36;99520.37;4311157;33;20144;-96
2023/07/16 02:36:25;;;;;;;0.03;0.03;;;;;;;21.63;60.35;99518.94;4310245;33;20179;-96
2023/07/16 02:38:51;;;;;;;0.10;0.10;;;;;;;21.93;60.36;99520.87;4309943;33;20099;-96
2023/07/16 02:41:16;;;;;;;0.00;0.00;;;;;;;21.68;60.35;99527.34;4311172;33;20138;-96
2023/07/16 02:43:42;;;;;;;0.82;0.70;;;;;;;21.72;60.36;99522.66;4312775;33;20413;-96
2023/07/16 02:46:09;;;;;;;0.80;0.52;;;;;;;21.68;60.35;99521.22;4323173;33;20116;-96
2023/07/16 02:48:35;;;;;;;0.25;0.25;;;;;;;21.69;60.35;99526.38;4316507;33;20104;-96
2023/07/16 02:51:00;;;;;;;0.00;0.00;;;;;;;21.69;60.35;99522.91;4310168;33;20107;-95
2023/07/16 02:53:26;;;;;;;0.52;0.52;;;;;;;21.80;60.37;99527.34;4322638;33;20148;-95
2023/07/16 02:55:51;;;;;;;0.45;0.43;;;;;;;21.73;60.36;99519.88;4309711;33;20152;-96
2023/07/16 02:58:16;;;;;;;0.35;0.35;;;;;;;21.76;60.36;99532.03;4321705;33;20111;-95
2023/07/16 03:00:42;;;;;;;1.12;0.88;;;;;;;21.67;60.35;99523.03;4321706;33;20172;-96
2023/07/16 03:03:07;;;;;;;0.08;0.08;;;;;;;21.66;60.36;99523.16;4309695;33;20150;-96
2023/07/16 03:05:33;;;;;;;5.20;1.30;;;;;;;21.71;60.36;99520.97;4309319;33;20151;-95
2023/07/16 03:07:58;;;;;;;0.65;0.45;;;;;;;21.67;60.35;99524.84;4309535;33;20104;-95
2023/07/16 03:10:26;;;;;;;0.80;0.80;;;;;;;21.65;60.36;99538.22;4310028;33;20546;-94
2023/07/16 03:12:52;;;;;;;0.40;0.40;;;;;;;21.78;60.35;99534.56;4322313;33;20134;-96
2023/07/16 03:15:17;;;;;;;0.80;0.77;;;;;;;21.71;60.37;99529.75;4309342;33;20210;-96
2023/07/16 03:17:42;;;;;;;0.57;0.55;;;;;;;21.71;60.36;99534.22;4309353;33;20096;-96
2023/07/16 03:20:08;;;;;;;0.55;0.52;;;;;;;21.76;60.36;99535.50;4321306;33;20138;-94
2023/07/16 03:22:34;;;;;;;0.00;0.00;;;;;;;21.93;60.36;99536.78;4309358;33;20108;-96
2023/07/16 03:24:59;;;;;;;2.28;1.40;;;;;;;21.89;60.37;99539.81;4321127;33;20389;-96
2023/07/16 03:27:26;;;;;;;0.70;0.70;;;;;;;21.88;60.37;99539.00;4333968;33;20111;-96
2023/07/16 03:29:52;;;;;;;0.52;0.43;;;;;;;21.84;60.36;99540.22;4334522;33;20119;-96
2023/07/16 03:32:17;;;;;;;0.73;0.30;;;;;;;21.87;60.36;99533.81;4309501;33;20171;-96
2023/07/16 03:34:43;;;;;;;0.20;0.20;;;;;;;21.94;60.36;99542.94;4323189;33;20151;-96
2023/07/16 03:37:08;;;;;;;0.77;0.50;;;;;;;21.96;60.37;99541.00;4311041;33;20147;-95
2023/07/16 03:39:34;;;;;;;0.45;0.45;;;;;;;22.00;60.37;99538.00;4311156;33;20577;-95
2023/07/16 03:41:59;;;;;;;1.50;0.93;;;;;;;22.03;60.38;99542.19;4311008;33;20430;-96
2023/07/16 03:44:25;;;;;;;3.17;0.93;;;;;;;22.04;60.38;99541.25;4311699;33;20690;-96
2023/07/16 03:46:50;;;;;;;0.30;0.30;;;;;;;22.22;60.38;99542.34;4323139;33;20104;-95
2023/07/16 03:49:16;;;;;;;0.75;0.75;;;;;;;22.21;60.38;99545.13;4311584;33;20163;-96
2023/07/16 03:51:41;;;;;;;0.20;0.20;;;;;;;22.30;60.38;99545.22;4311054;33;20108;-96
2023/07/16 03:54:07;;;;;;;0.37;0.37;;;;;;;22.34;60.39;99551.94;4310980;33;20151;-96
2023/07/16 03:56:32;;;;;;;1.12;0.95;;;;;;;22.60;60.40;99547.09;4335484;33;20127;-96
2023/07/16 03:58:58;;;;;;;1.48;1.37;;;;;;;22.70;60.41;99555.09;4310873;33;20107;-96
2023/07/16 04:01:23;;;;;;;0.30;0.30;;;;;;;22.80;60.42;99545.41;4310709;33;20099;-96
2023/07/16 04:03:49;;;;;;;0.10;0.10;;;;;;;22.90;60.42;99543.66;4310956;33;20146;-96
2023/07/16 04:06:14;;;;;;;1.10;0.85;;;;;;;22.86;60.41;99552.03;4311653;33;20103;-95
2023/07/16 04:08:40;;;;;;;1.37;0.82;;;;;;;22.99;60.42;99562.44;4311784;33;20127;-95
2023/07/16 04:11:06;;;;;;;0.45;0.40;;;;;;;23.05;60.43;99559.25;4312410;33;20186;-95
2023/07/16 04:13:31;;;;;;;0.20;0.20;;;;;;;23.15;60.42;99558.28;4327571;33;20084;-96
2023/07/16 04:15:57;;;;;;;0.47;0.47;;;;;;;23.30;60.44;99556.12;4324247;33;20134;-96
2023/07/16 04:18:23;;;;;;;1.52;0.62;;;;;;;23.55;60.44;99558.28;4318785;33;20159;-96
2023/07/16 04:20:49;;;;;;;0.28;0.28;;;;;;;23.58;60.44;99565.19;4310923;33;20132;-96
2023/07/16 04:23:14;;;;;;;1.08;0.80;;;;;;;23.74;60.46;99560.19;4310814;33;20123;-95
2023/07/16 04:25:40;;;;;;;0.28;0.28;;;;;;;23.82;60.47;99554.19;4311525;33;20115;-96
2023/07/16 04:28:05;;;;;;;1.27;0.43;;;;;;;23.98;60.46;99553.63;4310602;33;20157;-95
2023/07/16 04:30:31;;;;;;;0.80;0.43;;;;;;;24.23;60.48;99558.41;4322857;33;20115;-96
2023/07/16 04:32:56;;;;;;;0.08;0.08;;;;;;;24.37;60.48;99557.16;4310680;33;20116;-96
2023/07/16 04:35:22;;;;;;;12.25;0.73;;;;;;;24.41;60.49;99563.88;4310572;33;20430;-96
2023/07/16 04:37:47;;;;;;;1.35;1.25;;;;;;;24.58;60.50;99563.12;4310490;33;20092;-96
2023/07/16 04:40:12;;;;;;;0.13;0.13;;;;;;;24.65;60.51;99564.28;4322712;33;20132;-95
2023/07/16 04:42:38;;;;;;;0.55;0.55;;;;;;;24.82;60.51;99567.16;4323012;33;20104;-95
2023/07/16 04:45:05;;;;;;;1.37;0.93;;;;;;;24.89;60.51;99569.13;4309871;33;20094;-95
2023/07/16 04:47:30;;;;;;;0.68;0.47;;;;;;;25.07;60.52;99566.53;4310372;33;20743;-95
2023/07/16 04:49:58;;;;;;;0.00;0.00;;;;;;;25.15;60.52;99572.00;4310202;33;20151;-96
2023/07/16 04:52:23;;;;;;;0.35;0.35;;;;;;;25.27;60.54;99568.16;4310406;33;20134;-95
2023/07/16 04:54:48;;;;;;;0.10;0.10;;;;;;;25.42;60.54;99565.00;4310267;33;20099;-96
2023/07/16 04:57:14;;;;;;;3.10;0.95;;;;;;;25.66;60.55;99562.62;4310416;33;20441;-96
2023/07/16 04:59:40;;;;;;;0.75;0.50;;;;;;;25.75;60.56;99567.06;4310514;33;20426;-95
2023/07/16 05:02:06;;;;;;;1.30;0.85;;;;;;;26.06;60.58;99569.41;4335018;33;20148;-95
2023/07/16 05:04:31;;;;;;;2.10;0.70;;;;;;;25.96;60.57;99566.78;4310468;33;20117;-96
2023/07/16 05:06:57;;;;;;;0.70;0.32;;;;;;;26.04;60.58;99566.87;4322874;33;20099;-96
2023/07/16 05:09:23;;;;;;;2.30;1.35;;;;;;;26.18;60.59;99568.16;4310583;33;20147;-96
2023/07/16 05:11:48;;;;;;;0.37;0.37;;;;;;;26.23;60.58;99557.88;4310218;33;20111;-95
2023/07/16 05:14:14;;;;;;;6.75;1.17;;;;;;;26.34;60.59;99563.00;4322194;33;20118;-96
2023/07/16 05:16:39;;;;;;;0.43;0.40;;;;;;;26.52;60.60;99571.84;4310790;33;20134;-96
2023/07/16 05:19:04;;;;;;;0.50;0.50;;;;;;;26.62;60.61;99564.56;4310122;33;20151;-96
2023/07/16 05:21:32;;;;;;;0.47;0.47;;;;;;;26.71;60.61;99570.78;4310796;33;20096;-96
2023/07/16 05:23:58;;;;;;;0.22;0.22;;;;;;;26.82;60.61;99567.03;4310314;33;20083;-95
2023/07/16 05:26:23;;;;;;;0.20;0.20;;;;;;;26.89;60.62;99560.88;4310314;33;20414;-95
2023/07/16 05:28:49;;;;;;;4.62;1.45;;;;;;;26.99;60.62;99554.62;4310750;33;20151;-95
2023/07/16 05:31:15;;;;;;;1.42;0.50;;;;;;;27.00;60.62;99557.16;4310442;33;20096;-96
2023/07/16 05:33:41;;;;;;;0.10;0.10;;;;;;;27.09;60.63;99556.19;4310172;33;20522;-95
2023/07/16 05:36:07;;;;;;;1.33;1.23;;;;;;;27.06;60.63;99553.84;4310784;33;20103;-95
2023/07/16 05:38:32;;;;;;;0.30;0.13;;;;;;;27.14;60.63;99561.91;4310151;33;20107;-95
2023/07/16 05:41:02;;;;;;;0.98;0.98;;;;;;;27.16;60.64;99567.06;4311117;33;20108;-95
2023/07/16 05:43:28;;;;;;;0.65;0.55;;;;;;;27.31;60.64;99562.81;4314489;33;20055;-96
2023/07/16 05:45:53;;;;;;;0.08;0.08;;;;;;;27.28;60.64;99568.47;4321927;33;20134;-95
2023/07/16 05:48:18;;;;;;;0.10;0.10;;;;;;;27.42;60.64;99572.38;4313353;33;20533;-96
2023/07/16 05:50:45;;;;;;;0.52;0.52;;;;;;;27.54;60.66;99581.78;4310285;33;20167;-96
2023/07/16 05:53:13;;;;;;;0.00;0.00;;;;;;;27.62;60.66;99571.12;4310116;33;20106;-95
2023/07/16 05:55:39;;;;;;;0.30;0.30;;;;;;;27.81;60.66;99578.03;4309804;33;20067;-96
2023/07/16 05:58:06;;;;;;;0.30;0.25;;;;;;;27.88;60.66;99572.88;4322167;33;20123;-95
2023/07/16 06:00:32;;;;;;;0.22;0.22;;;;;;;28.03;60.68;99576.59;4334461;33;20104;-96
2023/07/16 06:02:57;;;;;;;0.25;0.17;;;;;;;28.12;60.69;99575.59;4310068;33;20119;-95
2023/07/16 06:05:24;;;;;;;0.17;0.17;;;;;;;28.28;60.69;99575.63;4309892;33;20130;-96
2023/07/16 06:07:50;;;;;;;0.30;0.30;;;;;;;28.37;60.69;99573.78;4310020;33;20739;-96
2023/07/16 06:10:15;;;;;;;0.20;0.20;;;;;;;28.42;60.70;99569.63;4310059;33;20139;-96
2023/07/16 06:12:41;;;;;;;0.20;0.20;;;;;;;28.64;60.71;99572.63;4321910;33;20135;-95
2023/07/16 06:15:08;;;;;;;0.57;0.57;;;;;;;28.48;60.70;99564.59;4309838;33;20099;-96
2023/07/16 06:17:33;;;;;;;0.28;0.28;;;;;;;28.73;60.72;99571.59;4334587;33;20068;-96
2023/07/16 06:19:59;;;;;;;0.35;0.35;;;;;;;28.73;60.72;99569.75;4309278;33;20092;-96
2023/07/16 06:22:24;;;;;;;0.20;0.20;;;;;;;28.82;60.72;99570.56;4309745;33;20091;-96
2023/07/16 06:24:50;;;;;;;0.73;0.73;;;;;;;28.90;60.72;99567.09;4321603;33;20116;-96
2023/07/16 06:27:15;;;;;;;1.73;0.95;;;;;;;29.01;60.74;99569.41;4309512;33;20096;-96
2023/07/16 06:29:40;;;;;;;1.23;0.75;;;;;;;29.10;60.74;99563.00;4309617;33;20112;-96
2023/07/16 06:32:06;;;;;;;0.32;0.32;;;;;;;29.24;60.74;99564.13;4321890;33;20118;-96
2023/07/16 06:34:32;;;;;;;0.10;0.10;;;;;;;29.35;60.75;99566.44;4309686;33;20121;-95
2023/07/16 06:36:57;;;;;;;0.43;0.43;;;;;;;29.58;60.76;99566.53;4310176;33;20135;-96
2023/07/16 06:39:23;;;;;;;0.45;0.45;;;;;;;29.66;60.77;99560.28;4310686;33;20151;-96
2023/07/16 06:41:48;;;;;;;0.10;0.10;;;;;;;29.86;60.77;99558.81;4309988;33;20158;-96
2023/07/16 06:44:13;;;;;;;0.40;0.40;;;;;;;29.91;60.78;99564.50;4321281;33;20144;-95
2023/07/16 06:46:39;;;;;;;0.00;0.00;;;;;;;30.03;60.78;99555.03;4309252;33;20107;-95
2023/07/16 06:49:05;;;;;;;0.65;0.65;;;;;;;30.12;60.79;99556.66;4320993;33;20147;-95
2023/07/16 06:51:32;;;;;;;0.20;0.20;;;;;;;30.30;60.80;99555.53;4308708;33;20095;-96
2023/07/16 06:53:57;;;;;;;0.20;0.20;;;;;;;30.62;60.81;99554.41;4308917;33;20122;-95
2023/07/16 06:56:23;;;;;;;0.35;0.28;;;;;;;30.69;60.80;99560.72;4308385;33;20147;-94
2023/07/16 06:58:48;;;;;;;0.57;0.52;;;;;;;30.95;60.83;99555.75;4308664;33;20133;-94
2023/07/16 07:01:13;;;;;;;0.30;0.25;;;;;;;31.02;60.83;99555.88;4320330;33;20099;-92
2023/07/16 07:03:39;;;;;;;0.10;0.10;;;;;;;31.16;60.83;99560.38;4308147;33;20441;-91
2023/07/16 07:06:04;;;;;;;0.17;0.17;;;;;;;31.11;60.84;99566.31;4320190;33;20120;-91
2023/07/16 07:08:30;;;;;;;0.10;0.10;;;;;;;31.26;60.84;99568.22;4333632;33;20515;-91
2023/07/16 07:10:56;;;;;;;0.22;0.22;;;;;;;31.33;60.85;99561.06;4335763;33;20141;-91
2023/07/16 07:13:21;;;;;;;1.02;1.00;;;;;;;31.42;60.85;99557.22;4325841;33;20088;-90
2023/07/16 07:15:47;;;;;;;0.00;0.00;;;;;;;31.51;60.86;99564.19;4330301;33;20104;-92
2023/07/16 07:18:12;;;;;;;0.20;0.20;;;;;;;31.55;60.86;99560.09;4309757;33;20130;-90
2023/07/16 07:20:39;;;;;;;1.70;0.90;;;;;;;31.71;60.86;99556.38;4321987;33;20083;-89
2023/07/16 07:23:05;;;;;;;0.20;0.20;;;;;;;31.81;60.88;99567.69;4321905;33;20123;-90
2023/07/16 07:25:30;;;;;;;0.90;0.43;;;;;;;31.96;60.88;99556.88;4321514;33;20469;-89
2023/07/16 07:27:56;;;;;;;0.32;0.32;;;;;;;31.94;60.88;99564.28;4321684;33;20493;-89
2023/07/16 07:30:21;;;;;;;1.98;0.85;;;;;;;32.09;60.89;99561.53;4333884;33;20143;-89
2023/07/16 07:32:46;;;;;;;0.60;0.35;;;;;;;32.30;60.90;99561.56;4321502;33;20429;-88
2023/07/16 07:35:12;;;;;;;0.45;0.45;;;;;;;32.24;60.90;99560.44;4333941;33;20694;-88
2023/07/16 07:37:37;;;;;;;1.40;0.68;;;;;;;32.36;60.89;99563.47;4334781;33;20979;-87
2023/07/16 07:40:03;;;;;;;0.40;0.40;;;;;;;32.36;60.91;99553.53;4321678;33;20426;-87
2023/07/16 07:42:29;;;;;;;0.52;0.40;;;;;;;32.56;60.91;99555.56;4335179;33;20126;-87
2023/07/16 07:44:54;;;;;;;1.05;0.95;;;;;;;32.58;60.91;99558.87;4334077;33;20419;-87
2023/07/16 07:47:20;;;;;;;1.48;1.27;;;;;;;32.71;60.92;99553.63;4333508;33;20537;-87
2023/07/16 07:49:45;;;;;;;1.02;0.95;;;;;;;32.80;60.92;99538.97;4334383;33;29473;-87
2023/07/16 07:52:10;;;;;;;0.20;0.20;;;;;;;32.85;60.93;99550.00;4334993;33;20107;-88
2023/07/16 07:54:36;;;;;;;0.50;0.43;;;;;;;33.05;60.94;99558.19;4321475;33;20143;-87
2023/07/16 07:57:04;;;;;;;8.45;1.25;;;;;;;33.19;60.95;99546.47;4333836;33;20142;-87
2023/07/16 07:59:30;;;;;;;0.47;0.47;;;;;;;33.13;60.94;99541.88;4333876;33;20354;-88
2023/07/16 08:01:57;;;;;;;0.50;0.50;;;;;;;33.14;60.94;99548.94;4321671;33;20118;-87
2023/07/16 08:04:23;;;;;;;0.43;0.43;;;;;;;33.52;60.96;99549.31;4309330;33;20174;-88
2023/07/16 08:06:49;;;;;;;0.30;0.30;;;;;;;33.66;60.97;99542.13;4334921;33;20100;-87
2023/07/16 08:09:14;;;;;;;0.55;0.50;;;;;;;33.83;60.98;99539.84;4321382;33;20196;-88
2023/07/16 08:11:39;;;;;;;0.37;0.37;;;;;;;33.98;60.98;99537.84;4335064;33;20445;-87
2023/07/16 08:14:05;;;;;;;0.35;0.30;;;;;;;34.03;60.98;99538.06;4334464;33;25263;-88
2023/07/16 08:16:30;;;;;;;0.57;0.57;;;;;;;34.10;60.99;99535.37;4321237;33;20147;-89
2023/07/16 08:18:56;;;;;;;0.00;0.00;;;;;;;34.14;60.99;99544.75;4333667;33;20139;-89
2023/07/16 08:21:21;;;;;;;0.45;0.37;;;;;;;34.11;60.99;99545.16;4321568;33;20402;-89
2023/07/16 08:23:48;;;;;;;0.55;0.55;;;;;;;34.37;60.99;99542.50;4333281;33;20163;-88
2023/07/16 08:26:13;;;;;;;1.83;0.60;;;;;;;34.34;61.00;99537.50;4334882;33;20138;-88
2023/07/16 08:28:39;;;;;;;0.77;0.45;;;;;;;34.51;61.00;99540.59;4321300;33;20385;-89
2023/07/16 08:31:04;;;;;;;0.62;0.57;;;;;;;34.56;61.02;99537.28;4321204;33;20481;-88
2023/07/16 08:33:30;;;;;;;0.35;0.35;;;;;;;34.65;61.01;99528.75;4334857;33;20118;-89
2023/07/16 08:35:55;;;;;;;0.00;0.00;;;;;;;34.77;61.03;99534.31;4321212;33;24804;-90
2023/07/16 08:38:20;;;;;;;0.37;0.37;;;;;;;35.10;61.04;99531.59;4333732;33;20477;-90
2023/07/16 08:40:47;;;;;;;0.40;0.40;;;;;;;35.26;61.04;99530.28;4333462;33;27605;-90
2023/07/16 08:43:13;;;;;;;0.88;0.75;;;;;;;35.36;61.05;99533.41;4322144;33;20119;-90
2023/07/16 08:45:44;;;;;;;0.50;0.50;;;;;;;35.62;61.06;99527.84;4339887;33;20068;-90
2023/07/16 08:48:10;;;;;;;0.50;0.50;;;;;;;35.80;61.07;99523.59;4335980;33;20151;-90
2023/07/16 08:50:36;;;;;;;0.30;0.30;;;;;;;36.12;61.08;99530.69;4321433;33;20123;-90
2023/07/16 08:53:05;;;;;;;0.37;0.37;;;;;;;36.34;61.10;99524.91;4309058;33;20126;-90
2023/07/16 08:55:31;;;;;;;0.73;0.73;;;;;;;36.47;61.11;99530.22;4321470;33;20504;-91
2023/07/16 08:57:57;;;;;;;0.25;0.25;;;;;;;36.61;61.11;99531.75;4321235;33;20127;-91
2023/07/16 09:00:25;;;;;;;0.45;0.45;;;;;;;36.79;61.12;99531.81;4334874;33;20087;-91
2023/07/16 09:02:52;;;;;;;0.50;0.50;;;;;;;36.91;61.13;99537.31;4321533;33;20100;-92
2023/07/16 09:05:19;;;;;;;0.75;0.73;;;;;;;37.02;61.13;99523.00;4321984;33;20151;-92
2023/07/16 09:07:45;;;;;;;0.47;0.47;;;;;;;37.28;61.15;99534.63;4321158;33;20091;-92
2023/07/16 09:10:11;;;;;;;0.30;0.30;;;;;;;37.30;61.15;99532.53;4308710;33;20245;-92
2023/07/16 09:12:42;;;;;;;1.45;1.08;;;;;;;37.36;61.14;99531.59;4321289;33;20108;-92
2023/07/16 09:15:07;;;;;;;0.70;0.40;;;;;;;37.50;61.15;99527.66;4320982;33;20111;-92
2023/07/16 09:17:35;;;;;;;0.47;0.47;;;;;;;37.57;61.15;99531.13;4321032;33;20421;-92
2023/07/16 09:20:02;;;;;;;0.95;0.95;;;;;;;37.63;61.16;99532.09;4321321;33;20110;-93
2023/07/16 09:22:27;;;;;;;0.70;0.70;;;;;;;37.67;61.16;99527.87;4321205;33;20142;-93
2023/07/16 09:24:53;;;;;;;0.20;0.20;;;;;;;37.80;61.17;99524.97;4309851;33;20473;-92
2023/07/16 09:27:18;;;;;;;0.55;0.55;;;;;;;37.84;61.17;99528.87;4309074;33;20121;-93
2023/07/16 09:29:44;;;;;;;0.55;0.55;;;;;;;37.72;61.17;99525.31;4320783;33;20418;-93
2023/07/16 09:32:09;;;;;;;1.55;1.15;;;;;;;37.64;61.16;99522.91;4320702;33;20443;-92
2023/07/16 09:34:34;;;;;;;0.93;0.85;;;;;;;37.65;61.16;99524.56;4321004;33;20525;-93
2023/07/16 09:37:00;;;;;;;0.80;0.65;;;;;;;37.97;61.18;99517.00;4308802;33;20421;-93
2023/07/16 09:39:26;;;;;;;0.20;0.20;;;;;;;38.16;61.20;99518.56;4320924;33;20505;-93
2023/07/16 09:41:52;;;;;;;1.02;0.65;;;;;;;38.33;61.19;99521.44;4321277;33;20187;-92
2023/07/16 09:44:17;;;;;;;0.65;0.65;;;;;;;38.37;61.19;99514.50;4321497;33;20095;-92
2023/07/16 09:46:43;;;;;;;0.43;0.43;;;;;;;38.26;61.20;99524.28;4309007;33;20103;-92
2023/07/16 09:49:09;;;;;;;0.80;0.80;;;;;;;38.26;61.20;99526.19;4320992;33;20110;-93
2023/07/16 09:51:41;;;;;;;0.28;0.28;;;;;;;38.53;61.21;99515.66;4321228;33;20449;-91
2023/07/16 09:54:06;;;;;;;0.37;0.37;;;;;;;38.81;61.22;99517.72;4321255;33;20382;-92
2023/07/16 09:56:37;;;;;;;0.80;0.80;;;;;;;38.81;61.22;99517.72;4308728;33;20121;-92
2023/07/16 09:59:02;;;;;;;0.40;0.40;;;;;;;39.03;61.23;99516.00;4320836;33;20473;-93
2023/07/16 10:01:28;;;;;;;0.85;0.75;;;;;;;39.14;61.23;99515.19;4321399;33;20104;-93
2023/07/16 10:03:54;;;;;;;0.40;0.40;;;;;;;39.22;61.23;99513.97;4321372;33;20123;-93
2023/07/16 10:06:22;;;;;;;0.68;0.68;;;;;;;39.47;61.25;99508.19;4320987;33;20417;-92
2023/07/16 10:08:49;;;;;;;0.40;0.40;;;;;;;39.77;61.27;99508.00;4308789;33;20118;-93
2023/07/16 10:11:18;;;;;;;0.43;0.43;;;;;;;39.84;61.27;99504.03;4321604;33;20108;-92
2023/07/16 10:13:48;;;;;;;0.45;0.40;;;;;;;40.01;61.28;99497.81;4334953;33;20496;-92
2023/07/16 10:16:24;;;;;;;0.65;0.65;;;;;;;40.12;61.28;99497.72;4327868;33;20060;-91
2023/07/16 10:18:55;;;;;;;0.55;0.55;;;;;;;40.20;61.29;99491.00;4321832;33;20114;-92
2023/07/16 10:21:25;;;;;;;0.30;0.30;;;;;;;40.14;61.29;99498.28;4309674;33;20130;-92
2023/07/16 10:24:03;;;;;;;0.40;0.40;;;;;;;39.77;61.27;99502.53;4308553;33;20111;-92
2023/07/16 10:26:29;;;;;;;0.55;0.55;;;;;;;39.59;61.26;99506.28;4321188;33;20450;-92
2023/07/16 10:29:14;;;;;;;0.82;0.52;;;;;;;39.21;61.23;99506.88;4308963;33;20155;-93
2023/07/16 10:31:52;;;;;;;7.22;1.20;;;;;;;39.13;61.23;99499.09;4308704;33;20138;-93
2023/07/16 10:34:22;;;;;;;0.82;0.70;;;;;;;38.91;61.23;99505.16;4322347;33;20183;-93
2023/07/16 10:36:49;;;;;;;0.43;0.30;;;;;;;38.67;61.23;99498.91;4308654;33;20110;-93
2023/07/16 10:39:15;;;;;;;1.05;0.60;;;;;;;38.55;61.21;99506.19;4310037;33;20064;-93
2023/07/16 10:41:40;;;;;;;1.02;0.62;;;;;;;38.14;61.19;99504.41;4320864;33;20167;-92
2023/07/16 10:44:08;;;;;;;0.75;0.60;;;;;;;38.14;61.19;99503.56;4308160;33;20493;-93
2023/07/16 10:46:33;;;;;;;0.30;0.30;;;;;;;38.14;61.19;99498.97;4320573;33;20111;-92
2023/07/16 10:49:05;;;;;;;0.40;0.40;;;;;;;38.11;61.19;99504.03;4320341;33;20107;-93
2023/07/16 10:51:30;;;;;;;4.18;0.60;;;;;;;38.01;61.19;99505.41;4320669;33;20167;-93
2023/07/16 10:53:59;;;;;;;1.15;0.85;;;;;;;38.13;61.19;99507.34;4332382;33;20163;-92
2023/07/16 10:56:25;;;;;;;0.50;0.50;;;;;;;38.45;61.21;99503.25;4309733;33;20107;-92
2023/07/16 10:58:50;;;;;;;0.28;0.25;;;;;;;38.67;61.22;99498.91;4320220;33;20131;-92
2023/07/16 11:01:16;;;;;;;1.12;0.85;;;;;;;38.76;61.22;99493.09;4320384;33;20134;-92
2023/07/16 11:03:41;;;;;;;0.45;0.45;;;;;;;38.96;61.22;99493.53;4307928;33;20123;-92
2023/07/16 11:06:08;;;;;;;0.57;0.55;;;;;;;38.96;61.23;99494.34;4308030;33;20122;-91
2023/07/16 11:08:37;;;;;;;0.75;0.75;;;;;;;39.00;61.23;99490.09;4320148;33;20088;-92
2023/07/16 11:11:02;;;;;;;4.62;0.68;;;;;;;38.89;61.22;99490.13;4308268;33;20146;-92
2023/07/16 11:13:28;;;;;;;1.02;0.95;;;;;;;38.96;61.23;99483.47;4308068;33;20132;-91
2023/07/16 11:15:54;;;;;;;0.52;0.45;;;;;;;39.09;61.24;99492.47;4321294;33;20381;-92
2023/07/16 11:18:23;;;;;;;0.47;0.40;;;;;;;39.21;61.24;99487.81;4320325;33;20134;-92
2023/07/16 11:20:51;;;;;;;0.60;0.60;;;;;;;39.46;61.25;99487.47;4332194;33;20115;-92
2023/07/16 11:23:16;;;;;;;0.57;0.57;;;;;;;39.44;61.25;99481.44;4333404;33;20139;-91
2023/07/16 11:25:46;;;;;;;1.70;1.58;;;;;;;39.33;61.25;99490.50;4320151;33;20418;-92
2023/07/16 11:28:11;;;;;;;1.58;1.35;;;;;;;39.26;61.24;99482.47;4332071;33;20080;-92
2023/07/16 11:30:37;;;;;;;0.45;0.35;;;;;;;39.18;61.25;99478.22;4319466;33;20126;-92